Hale, Michigan
Current Conditions -  °F | °C
As of 8:33 PM on Monday 22 Dec 2014 (Local Time) from KOSC Reporting Station
Overcast Overcast  
Wind Chill: 28°   Ceiling: 1700
Heat Index: 34°   Visibility: 7mi
Dew Point: 30°   Wind: 7mph
Humidity: 85%   Direction: 110°ESE
Pressure: 29.97"   Gusts: NA
Location:  44.38°N, 83.8°W
Report Text: KOSC 230133Z AUTO 11006KT 7SM OVC017 01/M01 A2997 RMK AO2 T00101012
Loading
Personal Weather Stations






























Interactive Weather Map New forecast layout! Learn more

10-Day Weather Forecast

Advertisements
Track Severe Weather on mobile